sensor_id;sensor_type;location;lat;lon;timestamp;pressure;altitude;pressure_sealevel;temperature;humidity
20860;BME280;10590;48.154;11.514;2023-03-24T00:00:26;95070.44;;;12.60;59.21
20860;BME280;10590;48.154;11.514;2023-03-24T00:05:28;95070.59;;;12.51;58.97
20860;BME280;10590;48.154;11.514;2023-03-24T00:10:31;95051.91;;;12.39;59.53
20860;BME280;10590;48.154;11.514;2023-03-24T00:15:34;95040.13;;;12.28;59.21
20860;BME280;10590;48.154;11.514;2023-03-24T00:20:36;95037.59;;;12.47;59.13
20860;BME280;10590;48.154;11.514;2023-03-24T00:25:39;95023.78;;;12.17;59.29
20860;BME280;10590;48.154;11.514;2023-03-24T00:30:41;95012.84;;;12.22;59.17
20860;BME280;10590;48.154;11.514;2023-03-24T00:35:43;94998.50;;;12.15;59.29
20860;BME280;10590;48.154;11.514;2023-03-24T00:40:46;95003.47;;;12.28;58.52
20860;BME280;10590;48.154;11.514;2023-03-24T00:45:49;95007.53;;;12.38;58.73
20860;BME280;10590;48.154;11.514;2023-03-24T00:50:51;94994.69;;;12.16;58.66
20860;BME280;10590;48.154;11.514;2023-03-24T00:55:55;95006.72;;;12.22;59.01
20860;BME280;10590;48.154;11.514;2023-03-24T01:00:57;95002.09;;;12.34;58.06
20860;BME280;10590;48.154;11.514;2023-03-24T01:06:00;95005.16;;;12.49;57.54
20860;BME280;10590;48.154;11.514;2023-03-24T01:11:04;95019.81;;;12.39;58.25
20860;BME280;10590;48.154;11.514;2023-03-24T01:16:07;95018.00;;;12.43;58.08
20860;BME280;10590;48.154;11.514;2023-03-24T01:21:10;95015.50;;;12.50;57.93
20860;BME280;10590;48.154;11.514;2023-03-24T01:26:13;95009.59;;;12.29;58.73
20860;BME280;10590;48.154;11.514;2023-03-24T01:31:15;95002.28;;;12.01;59.56
20860;BME280;10590;48.154;11.514;2023-03-24T01:36:16;94994.22;;;12.26;59.15
20860;BME280;10590;48.154;11.514;2023-03-24T01:41:19;94973.25;;;12.28;58.78
20860;BME280;10590;48.154;11.514;2023-03-24T01:46:22;94973.25;;;11.88;59.68
20860;BME280;10590;48.154;11.514;2023-03-24T01:51:28;94961.78;;;11.87;59.70
20860;BME280;10590;48.154;11.514;2023-03-24T01:56:37;94967.38;;;12.66;57.79
20860;BME280;10590;48.154;11.514;2023-03-24T02:01:40;94978.72;;;12.47;58.69
20860;BME280;10590;48.154;11.514;2023-03-24T02:06:43;94975.91;;;12.56;57.94
20860;BME280;10590;48.154;11.514;2023-03-24T02:11:47;94978.31;;;12.45;58.84
20860;BME280;10590;48.154;11.514;2023-03-24T02:17:11;94974.28;;;12.67;58.87
20860;BME280;10590;48.154;11.514;2023-03-24T02:22:33;94975.28;;;12.47;60.02
20860;BME280;10590;48.154;11.514;2023-03-24T02:28:03;94973.09;;;12.08;61.48
20860;BME280;10590;48.154;11.514;2023-03-24T02:33:34;94971.38;;;12.44;59.43
20860;BME280;10590;48.154;11.514;2023-03-24T02:44:25;94964.81;;;12.13;62.83
20860;BME280;10590;48.154;11.514;2023-03-24T02:49:36;94954.69;;;11.79;64.57
20860;BME280;10590;48.154;11.514;2023-03-24T02:54:46;94963.63;;;11.59;66.34
20860;BME280;10590;48.154;11.514;2023-03-24T02:59:54;94955.47;;;11.67;61.79
20860;BME280;10590;48.154;11.514;2023-03-24T03:05:01;94960.19;;;11.98;63.53
20860;BME280;10590;48.154;11.514;2023-03-24T03:10:08;94961.53;;;12.32;62.18
20860;BME280;10590;48.154;11.514;2023-03-24T03:15:18;94956.41;;;11.99;65.34
20860;BME280;10590;48.154;11.514;2023-03-24T03:20:23;94948.28;;;11.96;64.45
20860;BME280;10590;48.154;11.514;2023-03-24T03:25:28;94931.41;;;11.67;66.35
20860;BME280;10590;48.154;11.514;2023-03-24T03:30:36;94928.34;;;11.93;67.23
20860;BME280;10590;48.154;11.514;2023-03-24T03:35:44;94909.69;;;11.81;66.35
20860;BME280;10590;48.154;11.514;2023-03-24T03:40:50;94902.47;;;11.69;67.27
20860;BME280;10590;48.154;11.514;2023-03-24T03:45:54;94873.19;;;11.61;66.09
20860;BME280;10590;48.154;11.514;2023-03-24T03:50:56;94868.19;;;11.59;65.43
20860;BME280;10590;48.154;11.514;2023-03-24T03:55:57;94855.03;;;11.66;64.77
20860;BME280;10590;48.154;11.514;2023-03-24T04:01:02;94851.34;;;11.71;64.05
20860;BME280;10590;48.154;11.514;2023-03-24T04:06:10;94842.09;;;11.68;64.50
20860;BME280;10590;48.154;11.514;2023-03-24T04:11:27;94851.44;;;12.02;62.93
20860;BME280;10590;48.154;11.514;2023-03-24T04:16:43;94845.84;;;12.07;62.77
20860;BME280;10590;48.154;11.514;2023-03-24T04:21:58;94851.00;;;12.00;64.20
20860;BME280;10590;48.154;11.514;2023-03-24T04:27:08;94846.06;;;12.30;62.52
20860;BME280;10590;48.154;11.514;2023-03-24T04:32:19;94846.97;;;12.06;62.41
20860;BME280;10590;48.154;11.514;2023-03-24T04:37:26;94853.94;;;11.95;62.77
20860;BME280;10590;48.154;11.514;2023-03-24T04:42:34;94855.63;;;12.16;62.26
20860;BME280;10590;48.154;11.514;2023-03-24T04:47:41;94857.56;;;12.03;62.36
20860;BME280;10590;48.154;11.514;2023-03-24T04:52:45;94860.59;;;12.01;62.33
20860;BME280;10590;48.154;11.514;2023-03-24T04:57:47;94858.16;;;11.96;61.66
20860;BME280;10590;48.154;11.514;2023-03-24T05:02:50;94866.50;;;12.23;61.15
20860;BME280;10590;48.154;11.514;2023-03-24T05:07:54;94868.94;;;12.00;61.40
20860;BME280;10590;48.154;11.514;2023-03-24T05:12:56;94863.50;;;12.24;60.28
20860;BME280;10590;48.154;11.514;2023-03-24T05:17:59;94887.47;;;12.21;60.66
20860;BME280;10590;48.154;11.514;2023-03-24T05:23:01;94918.13;;;11.83;63.26
20860;BME280;10590;48.154;11.514;2023-03-24T05:28:02;94919.97;;;11.55;64.81
20860;BME280;10590;48.154;11.514;2023-03-24T05:33:05;94924.91;;;11.40;66.50
20860;BME280;10590;48.154;11.514;2023-03-24T05:38:07;94920.88;;;11.46;66.44
20860;BME280;10590;48.154;11.514;2023-03-24T05:43:09;94912.84;;;11.59;68.22
20860;BME280;10590;48.154;11.514;2023-03-24T05:48:12;94896.78;;;11.71;67.54
20860;BME280;10590;48.154;11.514;2023-03-24T05:53:14;94907.03;;;11.69;69.32
20860;BME280;10590;48.154;11.514;2023-03-24T05:58:16;94913.53;;;11.56;69.00
20860;BME280;10590;48.154;11.514;2023-03-24T06:03:21;94906.81;;;11.62;68.50
20860;BME280;10590;48.154;11.514;2023-03-24T06:08:23;94888.47;;;11.60;68.21
20860;BME280;10590;48.154;11.514;2023-03-24T06:13:27;94876.84;;;11.28;70.65
20860;BME280;10590;48.154;11.514;2023-03-24T06:18:31;94845.13;;;11.67;69.07
20860;BME280;10590;48.154;11.514;2023-03-24T06:23:32;94856.63;;;12.11;67.41
20860;BME280;10590;48.154;11.514;2023-03-24T06:28:34;94873.03;;;12.09;68.48
20860;BME280;10590;48.154;11.514;2023-03-24T06:33:40;94867.72;;;11.97;68.45
20860;BME280;10590;48.154;11.514;2023-03-24T06:38:43;94854.16;;;12.18;67.29
20860;BME280;10590;48.154;11.514;2023-03-24T06:43:44;94861.94;;;12.23;67.09
20860;BME280;10590;48.154;11.514;2023-03-24T06:48:47;94844.69;;;12.36;66.15
20860;BME280;10590;48.154;11.514;2023-03-24T06:53:49;94851.31;;;12.27;67.12
20860;BME280;10590;48.154;11.514;2023-03-24T07:04:51;94852.78;;;12.56;64.84
20860;BME280;10590;48.154;11.514;2023-03-24T07:09:57;94857.97;;;12.17;67.33
20860;BME280;10590;48.154;11.514;2023-03-24T07:15:01;94880.13;;;12.18;67.29
20860;BME280;10590;48.154;11.514;2023-03-24T07:20:06;94886.09;;;12.27;67.60
20860;BME280;10590;48.154;11.514;2023-03-24T07:25:08;94906.78;;;12.14;66.72
20860;BME280;10590;48.154;11.514;2023-03-24T07:30:10;94933.75;;;12.09;69.27
20860;BME280;10590;48.154;11.514;2023-03-24T07:35:15;94942.88;;;12.08;68.36
20860;BME280;10590;48.154;11.514;2023-03-24T07:40:17;94944.63;;;11.88;67.54
20860;BME280;10590;48.154;11.514;2023-03-24T07:45:18;94956.19;;;12.32;65.32
20860;BME280;10590;48.154;11.514;2023-03-24T07:50:21;94972.63;;;12.62;64.20
20860;BME280;10590;48.154;11.514;2023-03-24T07:55:24;94973.41;;;12.79;61.94
20860;BME280;10590;48.154;11.514;2023-03-24T08:00:26;94974.91;;;12.92;61.90
20860;BME280;10590;48.154;11.514;2023-03-24T08:05:29;94980.94;;;12.89;62.00
20860;BME280;10590;48.154;11.514;2023-03-24T08:10:31;94978.59;;;12.87;63.33
20860;BME280;10590;48.154;11.514;2023-03-24T08:15:33;94975.25;;;12.90;64.43
20860;BME280;10590;48.154;11.514;2023-03-24T08:20:36;94976.31;;;13.01;63.19
20860;BME280;10590;48.154;11.514;2023-03-24T08:25:37;94975.09;;;13.30;63.82
20860;BME280;10590;48.154;11.514;2023-03-24T08:30:39;94980.19;;;13.35;62.16
20860;BME280;10590;48.154;11.514;2023-03-24T08:35:44;94989.38;;;13.34;63.41
20860;BME280;10590;48.154;11.514;2023-03-24T08:40:46;94989.19;;;13.43;62.29
20860;BME280;10590;48.154;11.514;2023-03-24T08:45:48;94999.19;;;13.62;62.17
20860;BME280;10590;48.154;11.514;2023-03-24T08:50:51;95012.19;;;13.79;61.84
20860;BME280;10590;48.154;11.514;2023-03-24T08:55:53;95018.59;;;13.90;62.08
20860;BME280;10590;48.154;11.514;2023-03-24T09:00:54;95021.97;;;13.71;62.32
20860;BME280;10590;48.154;11.514;2023-03-24T09:05:57;95001.75;;;13.74;63.86
20860;BME280;10590;48.154;11.514;2023-03-24T09:10:59;95010.91;;;13.73;66.61
20860;BME280;10590;48.154;11.514;2023-03-24T09:16:02;95014.63;;;13.68;64.90
20860;BME280;10590;48.154;11.514;2023-03-24T09:21:06;95013.47;;;13.50;65.75
20860;BME280;10590;48.154;11.514;2023-03-24T09:26:08;95019.06;;;13.61;65.13
20860;BME280;10590;48.154;11.514;2023-03-24T09:31:09;95030.41;;;13.54;65.84
20860;BME280;10590;48.154;11.514;2023-03-24T09:36:12;95041.16;;;13.23;67.51
20860;BME280;10590;48.154;11.514;2023-03-24T09:41:16;95052.47;;;12.88;69.44
20860;BME280;10590;48.154;11.514;2023-03-24T09:46:25;95062.31;;;12.84;69.27
20860;BME280;10590;48.154;11.514;2023-03-24T09:51:30;95051.50;;;12.81;70.06
20860;BME280;10590;48.154;11.514;2023-03-24T09:56:36;95057.06;;;12.60;72.05
20860;BME280;10590;48.154;11.514;2023-03-24T10:01:38;95068.25;;;12.50;72.39
20860;BME280;10590;48.154;11.514;2023-03-24T10:06:41;95065.13;;;12.48;72.84
20860;BME280;10590;48.154;11.514;2023-03-24T10:11:46;95082.50;;;12.54;72.54
20860;BME280;10590;48.154;11.514;2023-03-24T10:16:56;95072.25;;;12.56;73.32
20860;BME280;10590;48.154;11.514;2023-03-24T10:22:05;95078.38;;;12.56;72.46
20860;BME280;10590;48.154;11.514;2023-03-24T10:27:15;95091.56;;;12.49;72.55
20860;BME280;10590;48.154;11.514;2023-03-24T10:32:22;95100.56;;;12.57;72.14
20860;BME280;10590;48.154;11.514;2023-03-24T10:37:29;95092.28;;;12.62;71.91
20860;BME280;10590;48.154;11.514;2023-03-24T10:42:32;95104.75;;;12.70;71.33
20860;BME280;10590;48.154;11.514;2023-03-24T10:47:35;95104.38;;;12.84;70.82
20860;BME280;10590;48.154;11.514;2023-03-24T10:52:43;95099.34;;;12.82;69.74
20860;BME280;10590;48.154;11.514;2023-03-24T10:57:48;95101.75;;;12.71;71.31
20860;BME280;10590;48.154;11.514;2023-03-24T11:02:55;95100.63;;;12.72;70.10
20860;BME280;10590;48.154;11.514;2023-03-24T11:08:13;95117.25;;;12.66;70.23
20860;BME280;10590;48.154;11.514;2023-03-24T11:13:31;95112.22;;;12.36;73.24
20860;BME280;10590;48.154;11.514;2023-03-24T11:18:33;95104.66;;;12.26;75.23
20860;BME280;10590;48.154;11.514;2023-03-24T11:23:38;95101.34;;;11.93;76.17
20860;BME280;10590;48.154;11.514;2023-03-24T11:28:41;95090.34;;;11.82;77.26
20860;BME280;10590;48.154;11.514;2023-03-24T11:33:49;95078.72;;;12.02;77.00
20860;BME280;10590;48.154;11.514;2023-03-24T11:38:59;95060.75;;;12.55;74.90
20860;BME280;10590;48.154;11.514;2023-03-24T11:44:17;95044.34;;;13.28;72.03
20860;BME280;10590;48.154;11.514;2023-03-24T11:49:24;95040.97;;;13.47;72.53
20860;BME280;10590;48.154;11.514;2023-03-24T11:54:32;95030.69;;;13.84;70.26
20860;BME280;10590;48.154;11.514;2023-03-24T11:59:39;95024.47;;;13.80;68.72
20860;BME280;10590;48.154;11.514;2023-03-24T12:04:55;95017.81;;;14.44;66.63
20860;BME280;10590;48.154;11.514;2023-03-24T12:10:05;95004.00;;;14.65;64.71
20860;BME280;10590;48.154;11.514;2023-03-24T12:15:22;95000.13;;;14.82;62.02
20860;BME280;10590;48.154;11.514;2023-03-24T12:20:30;94985.25;;;15.11;60.90
20860;BME280;10590;48.154;11.514;2023-03-24T12:25:43;94989.19;;;15.17;59.72
20860;BME280;10590;48.154;11.514;2023-03-24T12:30:58;94989.09;;;15.10;58.99
20860;BME280;10590;48.154;11.514;2023-03-24T12:36:12;94996.38;;;15.09;59.16
20860;BME280;10590;48.154;11.514;2023-03-24T12:41:29;95012.97;;;15.15;58.03
20860;BME280;10590;48.154;11.514;2023-03-24T12:46:40;95005.16;;;15.06;58.31
20860;BME280;10590;48.154;11.514;2023-03-24T12:51:48;95013.38;;;15.17;56.25
20860;BME280;10590;48.154;11.514;2023-03-24T12:56:58;95015.28;;;15.16;55.51
20860;BME280;10590;48.154;11.514;2023-03-24T13:02:08;95000.00;;;14.75;58.16
20860;BME280;10590;48.154;11.514;2023-03-24T13:07:16;95020.56;;;14.48;59.94
20860;BME280;10590;48.154;11.514;2023-03-24T13:12:22;95020.72;;;14.00;65.23
20860;BME280;10590;48.154;11.514;2023-03-24T13:17:27;95029.00;;;13.13;67.52
20860;BME280;10590;48.154;11.514;2023-03-24T13:22:32;94996.78;;;13.10;66.71
20860;BME280;10590;48.154;11.514;2023-03-24T13:27:37;94985.66;;;13.39;65.87
20860;BME280;10590;48.154;11.514;2023-03-24T13:32:44;94979.31;;;13.47;65.76
20860;BME280;10590;48.154;11.514;2023-03-24T13:37:50;94983.16;;;13.65;64.47
20860;BME280;10590;48.154;11.514;2023-03-24T13:42:56;94973.00;;;13.55;64.85
20860;BME280;10590;48.154;11.514;2023-03-24T13:48:04;94957.78;;;13.44;63.69
20860;BME280;10590;48.154;11.514;2023-03-24T13:53:15;94968.94;;;13.46;63.59
20860;BME280;10590;48.154;11.514;2023-03-24T13:58:20;94953.38;;;13.51;62.81
20860;BME280;10590;48.154;11.514;2023-03-24T14:03:31;94923.31;;;13.42;63.78
20860;BME280;10590;48.154;11.514;2023-03-24T14:08:40;94915.16;;;13.19;62.96
20860;BME280;10590;48.154;11.514;2023-03-24T14:13:48;94922.81;;;13.36;63.48
20860;BME280;10590;48.154;11.514;2023-03-24T14:18:50;94929.56;;;13.30;63.54
20860;BME280;10590;48.154;11.514;2023-03-24T14:23:51;94935.31;;;13.48;61.17
20860;BME280;10590;48.154;11.514;2023-03-24T14:28:56;94919.28;;;13.32;61.88
20860;BME280;10590;48.154;11.514;2023-03-24T14:34:04;94914.03;;;13.20;61.90
20860;BME280;10590;48.154;11.514;2023-03-24T14:39:23;94880.91;;;13.13;60.80
20860;BME280;10590;48.154;11.514;2023-03-24T14:44:55;94871.31;;;13.27;61.14
20860;BME280;10590;48.154;11.514;2023-03-24T14:50:00;94877.88;;;13.14;61.44
20860;BME280;10590;48.154;11.514;2023-03-24T14:55:05;94888.88;;;13.09;61.27
20860;BME280;10590;48.154;11.514;2023-03-24T15:00:15;94912.19;;;13.08;60.99
20860;BME280;10590;48.154;11.514;2023-03-24T15:05:22;94919.72;;;13.19;60.86
20860;BME280;10590;48.154;11.514;2023-03-24T15:10:25;94908.91;;;13.15;61.02
20860;BME280;10590;48.154;11.514;2023-03-24T15:15:33;94912.78;;;13.33;60.10
20860;BME280;10590;48.154;11.514;2023-03-24T15:20:36;94932.44;;;13.22;60.99
20860;BME280;10590;48.154;11.514;2023-03-24T15:25:39;94922.47;;;13.06;61.24
20860;BME280;10590;48.154;11.514;2023-03-24T15:30:43;94932.47;;;12.94;61.61
20860;BME280;10590;48.154;11.514;2023-03-24T15:35:45;94925.16;;;12.75;61.96
20860;BME280;10590;48.154;11.514;2023-03-24T15:40:56;94945.78;;;12.74;61.85
20860;BME280;10590;48.154;11.514;2023-03-24T15:46:00;94952.00;;;12.63;61.86
20860;BME280;10590;48.154;11.514;2023-03-24T15:51:06;94989.53;;;12.51;61.99
20860;BME280;10590;48.154;11.514;2023-03-24T15:56:16;94970.00;;;12.34;62.54
20860;BME280;10590;48.154;11.514;2023-03-24T16:01:24;94996.25;;;12.17;64.40
20860;BME280;10590;48.154;11.514;2023-03-24T16:06:32;95003.13;;;11.65;67.94
20860;BME280;10590;48.154;11.514;2023-03-24T16:11:35;95013.72;;;11.37;70.38
20860;BME280;10590;48.154;11.514;2023-03-24T16:16:38;95017.25;;;11.05;74.52
20860;BME280;10590;48.154;11.514;2023-03-24T16:21:40;95012.97;;;10.67;76.89
20860;BME280;10590;48.154;11.514;2023-03-24T16:26:42;95022.50;;;10.56;78.25
20860;BME280;10590;48.154;11.514;2023-03-24T16:31:46;95022.25;;;10.49;78.98
20860;BME280;10590;48.154;11.514;2023-03-24T16:36:50;95003.66;;;10.40;79.53
20860;BME280;10590;48.154;11.514;2023-03-24T16:41:52;94989.72;;;10.35;79.27
20860;BME280;10590;48.154;11.514;2023-03-24T16:46:55;94995.50;;;10.37;80.12
20860;BME280;10590;48.154;11.514;2023-03-24T16:51:57;95007.69;;;10.26;80.07
20860;BME280;10590;48.154;11.514;2023-03-24T16:56:59;94960.22;;;10.19;78.87
20860;BME280;10590;48.154;11.514;2023-03-24T17:02:01;94918.63;;;10.06;78.83
20860;BME280;10590;48.154;11.514;2023-03-24T17:07:05;94958.06;;;10.12;78.58
20860;BME280;10590;48.154;11.514;2023-03-24T17:12:07;94985.38;;;10.09;77.71
20860;BME280;10590;48.154;11.514;2023-03-24T17:17:11;94996.25;;;10.04;76.99
20860;BME280;10590;48.154;11.514;2023-03-24T17:22:14;94997.81;;;10.05;76.12
20860;BME280;10590;48.154;11.514;2023-03-24T17:27:18;95000.72;;;10.12;75.62
20860;BME280;10590;48.154;11.514;2023-03-24T17:32:26;95012.63;;;10.15;74.75
20860;BME280;10590;48.154;11.514;2023-03-24T17:37:29;95006.19;;;10.16;74.38
20860;BME280;10590;48.154;11.514;2023-03-24T17:42:31;94999.91;;;10.20;72.45
20860;BME280;10590;48.154;11.514;2023-03-24T17:47:34;94981.16;;;10.29;71.53
20860;BME280;10590;48.154;11.514;2023-03-24T17:52:36;94990.38;;;10.32;70.63
20860;BME280;10590;48.154;11.514;2023-03-24T17:57:37;94999.50;;;10.31;71.29
20860;BME280;10590;48.154;11.514;2023-03-24T18:02:41;94993.13;;;10.23;71.28
20860;BME280;10590;48.154;11.514;2023-03-24T18:07:43;95005.34;;;10.24;70.83
20860;BME280;10590;48.154;11.514;2023-03-24T18:12:44;95002.69;;;10.24;70.21
20860;BME280;10590;48.154;11.514;2023-03-24T18:17:47;95006.84;;;10.34;68.84
20860;BME280;10590;48.154;11.514;2023-03-24T18:22:49;95009.63;;;10.16;68.78
20860;BME280;10590;48.154;11.514;2023-03-24T18:27:52;95002.94;;;10.10;69.23
20860;BME280;10590;48.154;11.514;2023-03-24T18:32:56;95017.03;;;10.11;69.36
20860;BME280;10590;48.154;11.514;2023-03-24T18:38:00;95022.25;;;10.07;69.51
20860;BME280;10590;48.154;11.514;2023-03-24T18:43:01;95020.50;;;10.11;69.61
20860;BME280;10590;48.154;11.514;2023-03-24T18:48:05;94996.38;;;10.08;68.60
20860;BME280;10590;48.154;11.514;2023-03-24T18:53:07;95013.16;;;10.08;68.66
20860;BME280;10590;48.154;11.514;2023-03-24T18:58:08;95039.16;;;10.11;68.40
20860;BME280;10590;48.154;11.514;2023-03-24T19:03:15;95033.28;;;10.18;68.18
20860;BME280;10590;48.154;11.514;2023-03-24T19:08:17;95049.56;;;10.04;68.06
20860;BME280;10590;48.154;11.514;2023-03-24T19:13:19;95062.50;;;10.14;67.61
20860;BME280;10590;48.154;11.514;2023-03-24T19:18:23;95066.91;;;10.10;67.88
20860;BME280;10590;48.154;11.514;2023-03-24T19:23:28;95083.81;;;10.14;65.34
20860;BME280;10590;48.154;11.514;2023-03-24T19:28:31;95067.69;;;10.11;64.66
20860;BME280;10590;48.154;11.514;2023-03-24T19:33:34;95094.78;;;10.21;64.34
20860;BME280;10590;48.154;11.514;2023-03-24T19:38:37;95110.00;;;10.21;65.13
20860;BME280;10590;48.154;11.514;2023-03-24T19:43:39;95135.72;;;10.17;64.78
20860;BME280;10590;48.154;11.514;2023-03-24T19:48:42;95128.22;;;10.10;64.52
20860;BME280;10590;48.154;11.514;2023-03-24T19:53:43;95127.97;;;10.03;63.54
20860;BME280;10590;48.154;11.514;2023-03-24T19:58:45;95128.88;;;10.07;63.14
20860;BME280;10590;48.154;11.514;2023-03-24T20:03:48;95136.47;;;9.97;62.70
20860;BME280;10590;48.154;11.514;2023-03-24T20:08:50;95113.81;;;9.82;62.24
20860;BME280;10590;48.154;11.514;2023-03-24T20:13:51;95130.50;;;9.70;63.94
20860;BME280;10590;48.154;11.514;2023-03-24T20:18:54;95111.72;;;9.67;63.90
20860;BME280;10590;48.154;11.514;2023-03-24T20:23:58;95102.28;;;9.69;64.26
20860;BME280;10590;48.154;11.514;2023-03-24T20:29:00;95102.47;;;9.64;64.57
20860;BME280;10590;48.154;11.514;2023-03-24T20:34:04;95099.22;;;9.58;64.92
20860;BME280;10590;48.154;11.514;2023-03-24T20:39:06;95097.78;;;9.61;64.63
20860;BME280;10590;48.154;11.514;2023-03-24T20:44:08;95081.22;;;9.55;65.21
20860;BME280;10590;48.154;11.514;2023-03-24T20:49:11;95069.47;;;9.48;65.40
20860;BME280;10590;48.154;11.514;2023-03-24T20:54:15;95069.66;;;9.43;66.24
20860;BME280;10590;48.154;11.514;2023-03-24T20:59:17;95076.09;;;9.42;66.37
20860;BME280;10590;48.154;11.514;2023-03-24T21:04:20;95083.59;;;9.40;66.71
20860;BME280;10590;48.154;11.514;2023-03-24T21:09:22;95070.47;;;9.35;66.70
20860;BME280;10590;48.154;11.514;2023-03-24T21:14:23;95079.44;;;9.30;66.90
20860;BME280;10590;48.154;11.514;2023-03-24T21:19:26;95061.38;;;9.36;66.88
20860;BME280;10590;48.154;11.514;2023-03-24T21:24:32;95078.31;;;9.31;66.71
20860;BME280;10590;48.154;11.514;2023-03-24T21:29:47;95085.66;;;9.34;66.38
20860;BME280;10590;48.154;11.514;2023-03-24T21:34:52;95081.16;;;9.26;66.47
20860;BME280;10590;48.154;11.514;2023-03-24T21:39:54;95086.03;;;9.24;66.77
20860;BME280;10590;48.154;11.514;2023-03-24T21:44:56;95093.53;;;9.22;67.06
20860;BME280;10590;48.154;11.514;2023-03-24T21:50:02;95093.38;;;9.27;66.94
20860;BME280;10590;48.154;11.514;2023-03-24T21:55:07;95103.44;;;9.13;67.14
20860;BME280;10590;48.154;11.514;2023-03-24T22:00:11;95120.50;;;9.12;67.55
20860;BME280;10590;48.154;11.514;2023-03-24T22:08:00;95101.75;;;9.00;67.75
20860;BME280;10590;48.154;11.514;2023-03-24T22:13:23;95126.00;;;9.07;67.67
20860;BME280;10590;48.154;11.514;2023-03-24T22:18:46;95129.16;;;9.00;68.13
20860;BME280;10590;48.154;11.514;2023-03-24T22:24:11;95135.13;;;8.88;68.46
20860;BME280;10590;48.154;11.514;2023-03-24T22:29:31;95127.63;;;8.82;68.81
20860;BME280;10590;48.154;11.514;2023-03-24T22:34:52;95142.63;;;8.86;68.53
20860;BME280;10590;48.154;11.514;2023-03-24T22:40:16;95141.25;;;8.80;68.52
20860;BME280;10590;48.154;11.514;2023-03-24T22:45:39;95142.03;;;8.72;68.97
20860;BME280;10590;48.154;11.514;2023-03-24T22:50:59;95151.09;;;8.71;68.72
20860;BME280;10590;48.154;11.514;2023-03-24T22:56:24;95150.16;;;8.67;68.51
20860;BME280;10590;48.154;11.514;2023-03-24T23:01:45;95155.78;;;8.66;68.50
20860;BME280;10590;48.154;11.514;2023-03-24T23:07:05;95151.41;;;8.61;68.11
20860;BME280;10590;48.154;11.514;2023-03-24T23:18:44;95153.59;;;8.42;68.09
20860;BME280;10590;48.154;11.514;2023-03-24T23:24:05;95183.47;;;8.56;67.88
20860;BME280;10590;48.154;11.514;2023-03-24T23:29:25;95177.69;;;8.45;68.30
20860;BME280;10590;48.154;11.514;2023-03-24T23:41:59;95193.75;;;8.31;68.51
20860;BME280;10590;48.154;11.514;2023-03-24T23:47:20;95183.25;;;8.26;68.77
20860;BME280;10590;48.154;11.514;2023-03-24T23:52:40;95185.91;;;8.26;68.33
20860;BME280;10590;48.154;11.514;2023-03-24T23:58:03;95197.94;;;8.24;68.29
